Time;durP1;ratioP1;P1;durP2;ratioP2;P2;SDS_P1;SDS_P2;PMS_P1;PMS_P2;Temp;Humidity;BMP_temperature;BMP_pressure;BME280_temperature;BME280_humidity;BME280_pressure;Samples;Min_cycle;Max_cycle;Signal;HPM_P1;HPM_P2
2022/09/19 00:01:57;;;;;;;0.20;0.20;;;;;;;7.12;99.32;95577.59;5005269;28;20222;-84
2022/09/19 00:04:28;;;;;;;0.30;0.30;;;;;;;7.05;99.39;95588.41;5016888;28;20648;-83
2022/09/19 00:06:54;;;;;;;0.30;0.30;;;;;;;7.05;99.83;95597.94;5023812;28;20206;-83
2022/09/19 00:09:22;;;;;;;0.23;0.23;;;;;;;6.98;99.43;95596.78;5016522;28;20194;-84
2022/09/19 00:11:48;;;;;;;0.30;0.23;;;;;;;6.86;99.49;95590.03;5005319;28;20179;-83
2022/09/19 00:14:16;;;;;;;0.20;0.20;;;;;;;6.85;99.54;95596.16;5013383;28;20193;-83
2022/09/19 00:16:46;;;;;;;4.43;0.40;;;;;;;6.88;99.40;95601.88;5022921;28;20293;-83
2022/09/19 00:19:16;;;;;;;0.30;0.30;;;;;;;6.87;99.09;95605.41;5008616;28;20195;-83
2022/09/19 00:21:43;;;;;;;0.50;0.40;;;;;;;6.77;99.28;95605.31;5026727;28;20577;-83
2022/09/19 00:27:04;;;;;;;0.40;0.40;;;;;;;6.69;99.92;95606.88;5025129;28;20237;-83
2022/09/19 00:29:29;;;;;;;0.70;0.40;;;;;;;6.71;99.98;95605.81;5009444;28;20579;-82
2022/09/19 00:31:55;;;;;;;0.53;0.53;;;;;;;6.64;100.00;95603.84;5022413;28;20186;-83
2022/09/19 00:34:20;;;;;;;3.10;0.60;;;;;;;6.65;100.00;95605.50;5021307;28;20215;-83
2022/09/19 00:36:46;;;;;;;0.60;0.50;;;;;;;6.59;100.00;95605.97;5022662;28;20689;-82
2022/09/19 00:39:13;;;;;;;0.30;0.30;;;;;;;6.58;100.00;95617.25;5014158;28;20194;-83
2022/09/19 00:41:40;;;;;;;0.60;0.60;;;;;;;6.63;100.00;95622.88;5015899;28;20238;-83
2022/09/19 00:44:25;;;;;;;0.50;0.50;;;;;;;6.64;100.00;95627.09;5023407;28;20646;-83
2022/09/19 00:47:00;;;;;;;1.20;0.80;;;;;;;6.64;100.00;95632.25;5024583;28;20223;-83
2022/09/19 00:49:27;;;;;;;0.70;0.70;;;;;;;6.63;100.00;95628.03;5028377;28;20189;-83
2022/09/19 00:51:55;;;;;;;1.00;1.00;;;;;;;6.68;100.00;95631.88;5024095;28;20553;-83
2022/09/19 00:54:28;;;;;;;2.33;0.97;;;;;;;6.65;100.00;95631.31;5028221;28;20193;-83
2022/09/19 00:56:56;;;;;;;2.07;1.10;;;;;;;6.62;100.00;95631.53;5004985;28;20301;-83
2022/09/19 00:59:23;;;;;;;1.10;1.00;;;;;;;6.66;100.00;95648.41;5014640;28;20226;-83
2022/09/19 01:01:50;;;;;;;1.80;0.83;;;;;;;6.68;100.00;95636.22;5008532;28;20708;-83
2022/09/19 01:04:18;;;;;;;1.60;0.70;;;;;;;6.67;100.00;95639.72;5023161;28;20186;-83
2022/09/19 01:07:01;;;;;;;2.30;0.80;;;;;;;6.65;100.00;95641.63;5015882;28;20237;-83
2022/09/19 01:09:36;;;;;;;0.80;0.70;;;;;;;6.62;100.00;95639.25;5010750;28;20187;-83
2022/09/19 01:12:31;;;;;;;2.20;0.63;;;;;;;6.59;100.00;95642.09;5016609;28;20577;-83
2022/09/19 01:15:19;;;;;;;1.60;0.70;;;;;;;6.56;100.00;95648.31;5013425;28;20206;-83
2022/09/19 01:17:47;;;;;;;1.23;0.80;;;;;;;6.50;100.00;95644.47;5022182;28;20778;-83
2022/09/19 01:20:33;;;;;;;0.90;0.70;;;;;;;6.52;100.00;95640.00;5020281;28;20218;-83
2022/09/19 01:23:25;;;;;;;2.00;0.80;;;;;;;6.44;100.00;95639.75;5009116;28;20191;-83
2022/09/19 01:26:32;;;;;;;1.40;0.67;;;;;;;6.43;100.00;95637.31;5025329;28;20224;-83
2022/09/19 01:29:53;;;;;;;0.70;0.70;;;;;;;6.44;100.00;95649.28;5023083;28;20179;-83
2022/09/19 01:32:23;;;;;;;1.60;0.70;;;;;;;6.45;100.00;95641.44;4998377;28;20195;-83
2022/09/19 01:34:54;;;;;;;2.27;0.80;;;;;;;6.39;100.00;95649.66;4970579;28;20661;-83
2022/09/19 01:37:43;;;;;;;1.30;0.70;;;;;;;6.33;100.00;95657.84;4990310;28;20223;-83
2022/09/19 01:40:11;;;;;;;1.40;0.70;;;;;;;6.31;100.00;95658.91;4989657;28;20242;-83
2022/09/19 01:42:50;;;;;;;2.53;0.70;;;;;;;6.28;100.00;95654.00;4991830;28;20213;-83
2022/09/19 01:45:16;;;;;;;2.10;0.87;;;;;;;6.24;99.87;95651.63;4975157;28;20358;-83
2022/09/19 01:47:59;;;;;;;2.50;0.93;;;;;;;6.33;99.22;95651.88;4984810;28;20286;-83
2022/09/19 01:50:35;;;;;;;2.50;0.70;;;;;;;6.38;98.52;95649.78;4966047;28;20203;-83
2022/09/19 01:53:09;;;;;;;3.00;0.60;;;;;;;6.31;98.69;95656.34;4989601;28;20188;-83
2022/09/19 01:55:43;;;;;;;1.63;0.90;;;;;;;6.25;98.73;95655.84;4986401;28;20253;-83
2022/09/19 01:58:19;;;;;;;3.73;0.70;;;;;;;6.26;98.47;95664.41;4991771;28;20216;-85
2022/09/19 02:01:00;;;;;;;2.30;0.90;;;;;;;6.31;98.10;95664.06;4984599;28;20210;-83
2022/09/19 02:03:36;;;;;;;0.97;0.70;;;;;;;6.26;98.30;95661.84;4999445;28;20265;-83
2022/09/19 02:06:08;;;;;;;2.20;0.77;;;;;;;6.24;97.76;95663.72;4988144;28;20576;-83
2022/09/19 02:08:42;;;;;;;2.63;1.00;;;;;;;6.15;97.91;95664.44;5003054;28;20204;-83
2022/09/19 02:11:11;;;;;;;4.30;0.70;;;;;;;6.30;97.32;95660.69;5008022;28;20179;-83
2022/09/19 02:13:41;;;;;;;2.40;0.63;;;;;;;6.18;97.77;95666.75;5039023;28;20179;-84
2022/09/19 02:16:10;;;;;;;2.00;0.73;;;;;;;6.17;97.59;95675.44;5003554;28;20221;-84
2022/09/19 02:18:54;;;;;;;2.57;0.77;;;;;;;6.23;96.81;95668.06;5023472;28;20317;-83
2022/09/19 02:21:40;;;;;;;1.63;0.70;;;;;;;6.20;97.18;95667.47;5030207;28;20209;-83
2022/09/19 02:24:16;;;;;;;4.57;0.77;;;;;;;6.14;97.66;95668.75;5009154;28;20202;-83
2022/09/19 02:26:42;;;;;;;2.30;1.00;;;;;;;6.00;98.34;95665.59;5003076;28;20214;-83
2022/09/19 02:29:12;;;;;;;1.73;1.10;;;;;;;6.06;97.99;95670.28;5011842;28;20570;-83
2022/09/19 02:31:38;;;;;;;3.20;1.00;;;;;;;6.14;97.82;95670.53;5018324;28;20191;-83
2022/09/19 02:34:05;;;;;;;2.20;1.00;;;;;;;6.11;98.22;95669.00;5024599;28;20240;-83
2022/09/19 02:36:50;;;;;;;4.03;1.00;;;;;;;6.19;98.09;95678.75;5024258;28;20327;-85
2022/09/19 02:39:35;;;;;;;3.67;1.00;;;;;;;6.06;98.48;95678.84;5013359;28;20190;-83
2022/09/19 02:42:10;;;;;;;2.23;0.90;;;;;;;6.01;99.37;95675.81;5020302;28;20309;-83
2022/09/19 02:45:07;;;;;;;3.20;0.83;;;;;;;6.09;99.27;95672.63;5023569;28;20197;-87
2022/09/19 02:47:52;;;;;;;3.47;0.80;;;;;;;6.11;98.81;95681.09;5038140;28;20214;-85
2022/09/19 02:50:29;;;;;;;6.27;0.93;;;;;;;6.09;98.25;95673.44;5020081;28;20185;-83
2022/09/19 02:52:55;;;;;;;7.17;1.00;;;;;;;6.18;98.15;95669.34;5029329;28;20240;-83
2022/09/19 02:55:27;;;;;;;4.93;1.23;;;;;;;6.01;98.40;95670.66;5037311;28;20237;-85
2022/09/19 02:57:55;;;;;;;3.77;1.30;;;;;;;6.02;98.76;95677.44;5022772;28;20170;-87
2022/09/19 03:00:21;;;;;;;7.30;1.70;;;;;;;6.03;98.71;95683.41;5039567;28;20217;-83
2022/09/19 03:02:56;;;;;;;2.93;1.17;;;;;;;6.13;98.04;95676.63;5016256;28;20274;-83
2022/09/19 03:05:22;;;;;;;5.93;1.07;;;;;;;6.09;98.50;95681.16;5017413;28;20606;-84
2022/09/19 03:08:08;;;;;;;6.77;1.40;;;;;;;6.06;98.94;95680.59;5032717;28;20186;-84
2022/09/19 03:10:37;;;;;;;2.33;1.03;;;;;;;6.12;98.83;95690.44;5007123;28;20195;-83
2022/09/19 03:13:04;;;;;;;6.83;1.27;;;;;;;6.19;98.61;95694.22;5030293;28;20618;-83
2022/09/19 03:15:50;;;;;;;5.83;1.00;;;;;;;6.20;99.11;95704.41;5020405;28;20214;-83
2022/09/19 03:18:17;;;;;;;2.30;1.10;;;;;;;6.30;99.14;95706.28;5018938;28;20426;-83
2022/09/19 03:20:49;;;;;;;5.00;1.10;;;;;;;6.31;98.77;95706.16;4999992;28;20215;-83
2022/09/19 03:23:23;;;;;;;3.73;1.03;;;;;;;6.31;99.34;95706.16;5022754;28;20270;-83
2022/09/19 03:25:48;;;;;;;5.80;1.07;;;;;;;6.34;99.16;95700.75;5009077;28;20234;-83
2022/09/19 03:28:19;;;;;;;2.50;0.90;;;;;;;6.43;99.20;95700.03;5021570;28;20590;-83
2022/09/19 03:30:44;;;;;;;9.73;1.20;;;;;;;6.40;99.35;95710.59;5003280;28;20198;-83
2022/09/19 03:33:14;;;;;;;4.93;1.13;;;;;;;6.52;98.54;95716.56;5024072;28;20194;-85
2022/09/19 03:35:39;;;;;;;5.53;1.10;;;;;;;6.42;98.60;95708.72;5020355;28;20618;-83
2022/09/19 03:38:04;;;;;;;4.07;1.03;;;;;;;6.53;98.03;95711.28;5019273;28;20195;-83
2022/09/19 03:40:30;;;;;;;4.83;1.10;;;;;;;6.55;98.00;95710.38;5027153;28;20207;-83
2022/09/19 03:42:55;;;;;;;5.83;1.20;;;;;;;6.55;98.10;95707.78;5022807;28;20199;-83
2022/09/19 03:45:21;;;;;;;7.63;1.10;;;;;;;6.43;98.01;95710.38;5023900;28;20317;-83
2022/09/19 03:47:47;;;;;;;5.40;1.47;;;;;;;6.47;97.26;95714.38;5004756;28;20198;-84
2022/09/19 03:50:12;;;;;;;7.93;1.33;;;;;;;6.45;97.28;95710.28;5007220;28;20232;-83
2022/09/19 03:52:37;;;;;;;5.33;1.40;;;;;;;6.43;97.48;95718.09;5016255;28;20197;-83
2022/09/19 03:55:03;;;;;;;9.23;2.70;;;;;;;6.42;97.03;95708.72;5009613;28;20202;-83
2022/09/19 03:57:28;;;;;;;7.93;1.17;;;;;;;6.43;97.01;95714.69;5031285;28;20190;-83
2022/09/19 03:59:53;;;;;;;7.80;1.70;;;;;;;6.52;96.95;95709.66;5026495;28;20595;-84
2022/09/19 04:02:19;;;;;;;8.13;1.50;;;;;;;6.56;96.66;95714.59;5020655;28;20240;-83
2022/09/19 04:04:44;;;;;;;3.83;1.10;;;;;;;6.60;96.73;95721.16;5019891;28;20198;-84
2022/09/19 04:07:09;;;;;;;6.57;1.60;;;;;;;6.63;97.27;95718.34;5026929;28;20219;-83
2022/09/19 04:09:35;;;;;;;7.13;1.20;;;;;;;6.68;96.86;95723.94;5000319;28;20249;-84
2022/09/19 04:12:02;;;;;;;8.03;1.40;;;;;;;6.72;96.50;95731.34;5022466;28;20185;-83
2022/09/19 04:14:28;;;;;;;4.60;1.10;;;;;;;6.74;95.88;95723.47;5022679;28;20185;-83
2022/09/19 04:16:55;;;;;;;6.87;1.27;;;;;;;6.72;96.02;95735.69;5023092;28;20297;-83
2022/09/19 04:19:20;;;;;;;6.77;1.43;;;;;;;6.74;96.57;95737.22;5022932;28;20679;-82
2022/09/19 04:21:46;;;;;;;3.00;1.10;;;;;;;6.72;96.53;95746.84;5023599;28;20234;-83
2022/09/19 04:24:12;;;;;;;6.70;1.83;;;;;;;6.70;95.98;95742.72;5007780;28;20283;-83
2022/09/19 04:26:38;;;;;;;9.00;2.73;;;;;;;6.87;96.03;95744.81;5026918;28;20203;-83
2022/09/19 04:29:05;;;;;;;5.57;1.50;;;;;;;6.93;96.17;95739.16;5025639;28;20233;-87
2022/09/19 04:31:39;;;;;;;10.27;1.50;;;;;;;6.98;95.83;95747.38;5002488;28;20668;-83
2022/09/19 04:34:06;;;;;;;7.03;1.30;;;;;;;7.04;96.00;95753.81;5024002;28;20213;-83
2022/09/19 04:36:31;;;;;;;7.57;1.70;;;;;;;7.03;95.96;95745.25;5027730;28;20252;-84
2022/09/19 04:39:02;;;;;;;8.27;1.60;;;;;;;6.97;96.55;95752.63;5026379;28;20187;-84
2022/09/19 04:41:34;;;;;;;6.57;1.30;;;;;;;7.02;97.00;95748.78;5029582;28;20216;-84
2022/09/19 04:44:01;;;;;;;6.67;1.80;;;;;;;7.06;96.81;95754.50;5020819;28;20638;-84
2022/09/19 04:46:28;;;;;;;8.20;1.43;;;;;;;7.00;96.72;95755.81;5018417;28;20758;-84
2022/09/19 04:48:55;;;;;;;6.97;1.60;;;;;;;7.02;97.20;95753.94;5024756;28;20183;-84
2022/09/19 04:51:20;;;;;;;9.67;1.70;;;;;;;7.03;97.41;95755.56;5022865;28;20184;-84
2022/09/19 04:53:46;;;;;;;3.47;1.47;;;;;;;7.04;97.65;95759.78;5016362;28;20751;-84
2022/09/19 04:56:11;;;;;;;8.37;2.13;;;;;;;7.04;97.71;95759.78;5016283;28;20245;-84
2022/09/19 04:58:40;;;;;;;8.83;1.90;;;;;;;7.00;97.97;95763.56;5021675;28;20223;-82
2022/09/19 05:01:11;;;;;;;11.53;1.90;;;;;;;7.01;97.62;95760.03;5021328;28;20210;-83
2022/09/19 05:03:37;;;;;;;12.17;1.93;;;;;;;7.06;97.48;95759.66;5027057;28;20179;-83
2022/09/19 05:06:04;;;;;;;9.53;1.77;;;;;;;7.14;96.74;95765.03;5022731;28;20231;-83
2022/09/19 05:08:30;;;;;;;5.60;1.40;;;;;;;7.08;96.97;95760.38;5011598;28;20793;-84
2022/09/19 05:11:01;;;;;;;5.80;1.50;;;;;;;7.13;96.63;95770.34;5026044;28;20704;-78
2022/09/19 05:13:31;;;;;;;8.83;2.60;;;;;;;7.08;97.31;95781.03;5015360;28;20330;-80
2022/09/19 05:15:58;;;;;;;5.60;1.87;;;;;;;7.09;97.19;95765.44;5009669;28;20208;-79
2022/09/19 05:18:23;;;;;;;9.13;1.90;;;;;;;7.10;97.01;95777.41;4996769;28;20184;-83
2022/09/19 05:20:50;;;;;;;6.13;2.10;;;;;;;7.13;97.00;95780.66;5014948;28;20747;-84
2022/09/19 05:23:15;;;;;;;5.93;2.07;;;;;;;7.20;96.98;95781.84;5010642;28;20202;-79
2022/09/19 05:25:40;;;;;;;9.73;3.30;;;;;;;7.19;96.47;95780.19;5012270;28;20645;-78
2022/09/19 05:28:06;;;;;;;6.90;1.87;;;;;;;7.16;96.62;95794.19;5010498;28;20233;-79
2022/09/19 05:30:32;;;;;;;7.53;1.77;;;;;;;7.19;96.70;95786.19;5011592;28;20179;-79
2022/09/19 05:32:59;;;;;;;6.53;1.77;;;;;;;7.21;96.11;95784.28;5008522;28;20266;-77
2022/09/19 05:35:25;;;;;;;5.03;1.93;;;;;;;7.28;95.79;95792.38;5004576;28;20278;-82
2022/09/19 05:37:51;;;;;;;7.93;1.87;;;;;;;7.31;95.74;95798.13;4988760;28;20207;-81
2022/09/19 05:40:17;;;;;;;4.80;2.00;;;;;;;7.33;95.78;95795.41;5000354;28;20192;-81
2022/09/19 05:42:43;;;;;;;8.00;2.07;;;;;;;7.27;96.07;95788.97;5000876;28;20675;-82
2022/09/19 05:45:10;;;;;;;8.03;1.90;;;;;;;7.30;96.04;95795.66;5005323;28;20191;-82
2022/09/19 05:47:35;;;;;;;8.60;2.47;;;;;;;7.34;95.15;95792.72;4994652;28;20191;-82
2022/09/19 05:50:01;;;;;;;7.90;1.50;;;;;;;7.47;94.97;95802.88;5003632;28;20187;-81
2022/09/19 05:55:10;;;;;;;8.50;2.13;;;;;;;7.58;93.48;95804.59;5002448;28;20191;-80
2022/09/19 05:57:36;;;;;;;8.00;1.60;;;;;;;7.65;93.77;95803.19;4987360;28;20188;-81
2022/09/19 06:00:01;;;;;;;9.93;2.00;;;;;;;7.67;93.32;95804.69;4985892;28;20183;-81
2022/09/19 06:02:27;;;;;;;3.87;1.57;;;;;;;7.75;93.71;95808.44;4996900;28;20682;-81
2022/09/19 06:04:52;;;;;;;5.53;1.97;;;;;;;7.73;93.25;95808.56;5001642;28;20191;-81
2022/09/19 06:07:19;;;;;;;9.87;2.07;;;;;;;7.78;93.21;95815.97;4981750;28;20253;-81
2022/09/19 06:09:45;;;;;;;10.40;2.03;;;;;;;7.79;93.95;95815.81;5015700;28;20308;-81
2022/09/19 06:12:10;;;;;;;10.00;2.10;;;;;;;7.88;93.75;95824.59;4987694;28;20590;-82
2022/09/19 06:14:38;;;;;;;6.10;1.67;;;;;;;7.98;93.05;95828.09;5004775;28;20604;-82
2022/09/19 06:17:04;;;;;;;6.00;1.73;;;;;;;8.02;92.88;95832.03;4989925;28;20207;-81
2022/09/19 06:19:29;;;;;;;6.70;1.90;;;;;;;8.05;92.34;95831.81;5005844;28;20283;-81
2022/09/19 06:21:56;;;;;;;6.13;1.70;;;;;;;8.06;92.19;95830.88;5007583;28;20206;-81
2022/09/19 06:24:22;;;;;;;6.73;1.73;;;;;;;8.15;91.90;95837.06;4992239;28;20209;-82
2022/09/19 06:26:47;;;;;;;7.30;1.60;;;;;;;8.15;91.95;95839.63;5002087;28;20219;-82
2022/09/19 06:29:12;;;;;;;7.47;2.70;;;;;;;8.12;91.13;95835.53;4987343;28;20315;-82
2022/09/19 06:31:38;;;;;;;6.53;1.80;;;;;;;8.13;91.51;95839.78;5006520;28;20187;-82
2022/09/19 06:34:03;;;;;;;6.33;1.80;;;;;;;8.23;91.51;95842.44;5002854;28;20200;-82
2022/09/19 06:36:28;;;;;;;8.93;2.83;;;;;;;8.30;91.55;95845.31;5017753;28;20211;-82
2022/09/19 06:38:54;;;;;;;6.67;1.63;;;;;;;8.36;90.70;95850.00;5004127;28;20191;-82
2022/09/19 06:41:19;;;;;;;5.93;1.50;;;;;;;8.43;90.57;95849.38;4991115;28;20235;-82
2022/09/19 06:43:45;;;;;;;11.13;2.43;;;;;;;8.34;90.63;95857.06;4986383;28;20187;-83
2022/09/19 06:46:10;;;;;;;7.40;2.00;;;;;;;8.41;90.31;95853.88;4983167;28;20585;-82
2022/09/19 06:48:36;;;;;;;5.43;1.93;;;;;;;8.40;90.62;95862.59;4994740;28;20191;-82
2022/09/19 06:51:02;;;;;;;9.67;1.70;;;;;;;8.42;90.18;95855.50;5006850;28;20188;-82
2022/09/19 06:53:28;;;;;;;10.10;1.73;;;;;;;8.39;90.73;95865.28;4999187;28;20219;-82
2022/09/19 06:55:55;;;;;;;10.27;1.80;;;;;;;8.40;89.62;95867.75;4986014;28;20587;-82
2022/09/19 06:58:20;;;;;;;6.60;1.47;;;;;;;8.41;89.91;95864.22;5003136;28;20206;-82
2022/09/19 07:00:45;;;;;;;10.27;2.00;;;;;;;8.29;90.50;95864.38;5006740;28;20199;-82
2022/09/19 07:03:13;;;;;;;6.30;1.67;;;;;;;8.33;90.54;95876.13;4999836;28;20200;-82
2022/09/19 07:05:42;;;;;;;6.83;2.20;;;;;;;8.32;90.65;95877.06;4977465;28;20687;-82
2022/09/19 07:08:07;;;;;;;8.07;1.73;;;;;;;8.51;90.28;95877.22;5003307;28;20218;-82
2022/09/19 07:10:35;;;;;;;6.53;1.77;;;;;;;8.46;90.22;95879.38;4993491;28;20199;-82
2022/09/19 07:13:01;;;;;;;6.60;1.77;;;;;;;8.55;89.54;95876.00;4992734;28;20217;-77
2022/09/19 07:15:28;;;;;;;7.83;1.77;;;;;;;8.65;89.15;95882.06;4990367;28;20206;-82
2022/09/19 07:17:54;;;;;;;5.53;1.90;;;;;;;8.83;88.05;95884.06;4994266;28;20206;-83
2022/09/19 07:20:20;;;;;;;6.90;1.40;;;;;;;8.82;88.68;95882.44;5010184;28;20199;-83
2022/09/19 07:22:45;;;;;;;7.83;1.80;;;;;;;8.67;88.61;95882.78;4991566;28;20192;-83
2022/09/19 07:25:10;;;;;;;9.90;2.40;;;;;;;8.70;88.38;95889.47;4988213;28;20195;-80
2022/09/19 07:27:36;;;;;;;6.90;2.00;;;;;;;8.73;88.37;95894.38;4991170;28;20194;-81
2022/09/19 07:30:03;;;;;;;7.03;1.83;;;;;;;8.72;88.35;95898.72;4989740;28;20251;-82
2022/09/19 07:32:29;;;;;;;5.93;1.70;;;;;;;8.70;88.21;95900.63;4994754;28;20234;-80
2022/09/19 07:34:54;;;;;;;7.27;1.80;;;;;;;8.75;88.80;95895.91;5003761;28;20287;-80
2022/09/19 07:37:19;;;;;;;5.37;1.57;;;;;;;8.78;89.51;95902.59;5006511;28;20207;-80
2022/09/19 07:39:45;;;;;;;7.17;2.20;;;;;;;8.80;89.21;95900.69;5006793;28;20187;-80
2022/09/19 07:42:10;;;;;;;7.23;2.27;;;;;;;9.00;88.13;95904.19;5004339;28;20211;-80
2022/09/19 07:44:35;;;;;;;8.93;1.93;;;;;;;8.95;87.81;95904.59;5007933;28;20223;-82
2022/09/19 07:49:45;;;;;;;9.03;2.23;;;;;;;9.01;88.26;95918.78;5007835;28;20569;-81
2022/09/19 07:52:10;;;;;;;7.03;2.20;;;;;;;9.30;87.52;95917.16;5007735;28;20195;-80
2022/09/19 07:54:35;;;;;;;6.77;2.07;;;;;;;9.27;87.21;95917.41;4988434;28;20196;-81
2022/09/19 07:57:00;;;;;;;7.93;2.17;;;;;;;9.52;86.15;95923.09;5010417;28;20211;-80
2022/09/19 07:59:26;;;;;;;12.53;2.03;;;;;;;9.65;84.49;95916.72;4990879;28;20637;-81
2022/09/19 08:01:51;;;;;;;10.33;2.30;;;;;;;9.78;84.14;95924.25;5016490;28;20210;-80
2022/09/19 08:04:17;;;;;;;10.13;2.00;;;;;;;9.97;84.00;95930.41;4997535;28;20220;-81
2022/09/19 08:06:42;;;;;;;8.57;1.93;;;;;;;10.12;82.52;95942.06;4984206;28;20207;-80
2022/09/19 08:09:09;;;;;;;8.07;1.83;;;;;;;10.19;82.40;95940.56;4986840;28;20199;-80
2022/09/19 08:11:38;;;;;;;7.80;1.97;;;;;;;9.98;81.81;95945.03;5008322;28;20203;-81
2022/09/19 08:14:03;;;;;;;8.03;1.87;;;;;;;10.31;81.52;95939.50;5005577;28;20704;-81
2022/09/19 08:16:28;;;;;;;12.17;2.23;;;;;;;10.50;80.59;95941.28;4994613;28;20279;-80
2022/09/19 08:18:53;;;;;;;7.07;2.07;;;;;;;10.64;79.51;95943.47;5023693;28;20199;-81
2022/09/19 08:21:19;;;;;;;10.60;2.13;;;;;;;10.66;79.59;95941.53;5004158;28;20223;-81
2022/09/19 08:23:45;;;;;;;7.10;2.03;;;;;;;10.64;78.50;95945.25;4988224;28;20218;-80
2022/09/19 08:26:10;;;;;;;10.17;2.40;;;;;;;10.76;78.54;95946.72;4989609;28;20210;-81
2022/09/19 08:28:36;;;;;;;7.80;2.27;;;;;;;10.76;77.34;95951.91;5019226;28;20183;-81
2022/09/19 08:31:01;;;;;;;9.47;1.80;;;;;;;10.81;77.52;95952.34;5014348;28;20194;-77
2022/09/19 08:33:27;;;;;;;8.93;2.00;;;;;;;10.71;78.65;95957.53;4979508;28;20606;-81
2022/09/19 08:35:52;;;;;;;10.53;2.00;;;;;;;10.61;77.90;95961.94;4979983;28;20711;-80
2022/09/19 08:38:18;;;;;;;5.13;1.67;;;;;;;10.64;78.17;95960.81;5010516;28;20210;-81
2022/09/19 08:41:04;;;;;;;9.30;2.10;;;;;;;10.54;78.79;95960.00;4991022;28;20207;-80
2022/09/19 08:43:39;;;;;;;8.20;1.80;;;;;;;10.42;78.98;95965.34;5005191;28;20807;-80
2022/09/19 08:46:12;;;;;;;7.53;2.20;;;;;;;10.64;78.06;95964.25;5007987;28;20569;-81
2022/09/19 08:48:50;;;;;;;10.37;2.27;;;;;;;10.80;79.44;95968.88;5009443;28;20233;-81
2022/09/19 08:51:24;;;;;;;9.97;2.57;;;;;;;10.91;78.19;95968.72;5007614;28;20211;-81
2022/09/19 08:53:53;;;;;;;14.50;3.13;;;;;;;11.29;77.45;95974.78;5034453;28;20170;-80
2022/09/19 08:56:19;;;;;;;8.23;2.63;;;;;;;11.28;76.13;95967.94;5012614;28;20220;-81
2022/09/19 08:58:49;;;;;;;7.13;2.33;;;;;;;11.45;75.92;95977.63;5021045;28;20195;-80
2022/09/19 09:01:16;;;;;;;5.23;2.10;;;;;;;11.37;75.92;95976.69;5025590;28;20200;-81
2022/09/19 09:03:47;;;;;;;8.03;2.37;;;;;;;11.18;76.42;95977.56;5010161;28;20195;-81
2022/09/19 09:06:38;;;;;;;9.17;1.93;;;;;;;11.31;76.33;95983.28;5030175;28;20211;-82
2022/09/19 09:09:06;;;;;;;4.73;1.87;;;;;;;11.09;76.50;95983.59;5026121;28;20202;-81
2022/09/19 09:11:42;;;;;;;4.77;1.70;;;;;;;11.10;76.93;95990.44;5015848;28;20221;-81
2022/09/19 09:14:10;;;;;;;8.00;1.90;;;;;;;10.85;77.20;95986.63;5011166;28;20267;-81
2022/09/19 09:16:54;;;;;;;8.80;1.90;;;;;;;11.13;76.40;95985.78;4998600;28;20246;-82
2022/09/19 09:20:05;;;;;;;6.37;2.00;;;;;;;11.47;75.74;95987.88;5003443;28;20180;-82
2022/09/19 09:22:33;;;;;;;9.43;1.70;;;;;;;11.66;75.31;95993.03;4990808;28;20223;-81
2022/09/19 09:25:13;;;;;;;9.07;2.20;;;;;;;11.37;76.91;95987.09;5001895;28;20187;-81
2022/09/19 09:27:47;;;;;;;8.60;1.93;;;;;;;11.50;76.66;95988.41;4995172;28;20179;-81
2022/09/19 09:30:16;;;;;;;6.77;2.10;;;;;;;11.51;76.09;95990.06;4995284;28;20190;-81
2022/09/19 09:32:45;;;;;;;6.47;1.90;;;;;;;11.44;75.40;95988.97;5012354;28;20194;-82
2022/09/19 09:35:18;;;;;;;11.17;2.13;;;;;;;11.42;77.23;95993.50;4999742;28;20237;-81
2022/09/19 09:37:57;;;;;;;7.40;1.80;;;;;;;11.40;76.72;95986.81;5006576;28;20210;-81
2022/09/19 09:43:14;;;;;;;10.73;2.43;;;;;;;11.47;77.23;95986.09;5006324;28;20202;-81
2022/09/19 09:45:45;;;;;;;5.37;1.70;;;;;;;11.67;76.49;95989.47;4997947;28;20647;-81
2022/09/19 09:48:21;;;;;;;8.53;1.80;;;;;;;11.70;75.98;95988.34;4993154;28;20187;-81
2022/09/19 09:51:15;;;;;;;8.93;1.60;;;;;;;11.69;75.44;95986.72;5004216;28;20649;-81
2022/09/19 09:53:53;;;;;;;5.33;1.30;;;;;;;11.71;75.76;95989.97;4992927;28;20211;-81
2022/09/19 09:56:30;;;;;;;4.40;1.57;;;;;;;11.69;75.71;95986.72;4992661;28;20233;-81
2022/09/19 10:03:34;;;;;;;4.07;1.53;;;;;;;11.73;74.19;95983.66;5007952;28;20198;-81
2022/09/19 10:05:02;;;;;;;4.00;1.40;;;;;;;11.88;74.12;95997.06;5000923;28;20226;-82
2022/09/19 10:07:51;;;;;;;5.27;1.87;;;;;;;12.19;73.47;95997.53;4983978;28;20309;-81
2022/09/19 10:10:19;;;;;;;5.50;1.73;;;;;;;12.20;73.36;95991.41;5006834;28;20194;-81
2022/09/19 10:13:08;;;;;;;4.50;2.10;;;;;;;12.17;73.21;95996.88;4984454;28;20505;-81
2022/09/19 10:15:39;;;;;;;5.87;1.70;;;;;;;12.13;73.27;95992.94;4992892;28;20207;-81
2022/09/19 10:18:09;;;;;;;6.10;1.33;;;;;;;12.28;71.76;95988.88;5012111;28;20568;-81
2022/09/19 10:20:38;;;;;;;5.43;1.77;;;;;;;12.27;72.02;95986.41;4984877;28;20304;-81
2022/09/19 10:23:08;;;;;;;4.67;1.50;;;;;;;12.56;71.82;95992.25;5006218;28;20194;-81
2022/09/19 10:25:34;;;;;;;6.77;1.60;;;;;;;12.55;72.61;95982.81;5006045;28;20199;-81
2022/09/19 10:28:15;;;;;;;5.23;1.50;;;;;;;12.60;71.49;95982.34;5007835;28;20830;-81
2022/09/19 10:30:50;;;;;;;7.63;1.73;;;;;;;12.65;71.69;95986.13;4989497;28;20179;-80
2022/09/19 10:33:25;;;;;;;5.63;1.50;;;;;;;12.68;71.57;95983.22;4984925;28;20297;-81
2022/09/19 10:35:54;;;;;;;7.33;1.53;;;;;;;12.84;70.63;95989.56;5000169;28;20206;-82
2022/09/19 10:38:21;;;;;;;5.37;1.30;;;;;;;12.95;71.15;95991.91;5007550;28;20190;-80
2022/09/19 10:40:52;;;;;;;4.83;1.50;;;;;;;12.97;70.11;95990.78;5022172;28;20291;-82
2022/09/19 10:43:32;;;;;;;3.67;1.23;;;;;;;12.57;69.81;95999.09;5009390;28;20179;-81
2022/09/19 10:46:06;;;;;;;2.83;1.20;;;;;;;12.60;71.27;95988.38;5005484;28;20211;-81
2022/09/19 10:48:50;;;;;;;5.63;1.10;;;;;;;12.60;70.82;95995.38;5002007;28;20187;-81
2022/09/19 10:51:16;;;;;;;3.00;1.10;;;;;;;12.97;69.79;95989.97;5003339;28;20317;-81
2022/09/19 10:53:45;;;;;;;4.73;1.23;;;;;;;13.62;67.57;95994.84;5005808;28;20180;-81
2022/09/19 10:56:23;;;;;;;5.90;1.27;;;;;;;13.20;69.39;95991.16;4991792;28;20623;-81
2022/09/19 10:58:52;;;;;;;5.17;1.30;;;;;;;13.73;68.75;95992.75;5006939;28;20539;-81
2022/09/19 11:01:23;;;;;;;2.77;1.30;;;;;;;13.67;67.92;95989.94;5002546;28;20258;-80
2022/09/19 11:04:21;;;;;;;4.60;1.37;;;;;;;13.58;67.93;95999.53;4994171;28;20266;-81
2022/09/19 11:06:58;;;;;;;3.33;1.10;;;;;;;13.30;67.60;95999.69;5006003;28;20206;-80
2022/09/19 11:09:31;;;;;;;2.90;1.13;;;;;;;13.47;66.94;95999.81;5005183;28;20179;-81
2022/09/19 11:12:05;;;;;;;3.60;1.20;;;;;;;13.49;67.92;96003.88;4989193;28;20195;-81
2022/09/19 11:14:35;;;;;;;3.60;1.20;;;;;;;13.66;68.27;96006.59;4982620;28;20246;-81
2022/09/19 11:17:31;;;;;;;3.90;1.20;;;;;;;13.17;68.56;96001.88;4999159;28;20210;-81
2022/09/19 11:20:17;;;;;;;3.03;1.17;;;;;;;13.28;67.56;96006.84;4998403;28;20278;-81
2022/09/19 11:23:03;;;;;;;6.70;1.40;;;;;;;13.39;68.20;96011.00;4990838;28;20194;-81
2022/09/19 11:25:37;;;;;;;5.50;1.27;;;;;;;13.36;68.22;96011.31;5018587;28;20203;-81
2022/09/19 11:28:33;;;;;;;4.77;1.20;;;;;;;13.45;68.10;96007.78;4985132;28;20188;-81
2022/09/19 11:31:20;;;;;;;3.53;1.40;;;;;;;13.77;68.28;96008.91;4995252;28;20660;-81
2022/09/19 11:34:05;;;;;;;5.50;1.50;;;;;;;13.59;67.50;96009.00;4966566;28;20282;-81
2022/09/19 11:36:52;;;;;;;3.13;1.30;;;;;;;13.66;67.44;96012.63;4989001;28;20235;-81
2022/09/19 11:39:48;;;;;;;5.93;1.23;;;;;;;13.30;66.59;96014.53;4988721;28;20645;-82
2022/09/19 11:42:23;;;;;;;3.83;1.10;;;;;;;13.26;66.18;96014.03;4988445;28;20208;-82
2022/09/19 11:45:11;;;;;;;2.70;1.20;;;;;;;13.30;66.59;96007.53;4994750;28;20187;-81
2022/09/19 11:47:36;;;;;;;5.27;1.40;;;;;;;14.00;65.69;96014.41;4979770;28;20193;-82
2022/09/19 11:50:23;;;;;;;3.33;1.80;;;;;;;14.04;65.89;96005.28;4990611;28;20191;-82
2022/09/19 11:53:01;;;;;;;3.83;1.10;;;;;;;14.11;64.91;96007.09;4987145;28;20185;-83
2022/09/19 11:55:47;;;;;;;5.83;1.57;;;;;;;13.61;64.58;96007.06;4988161;28;20250;-86
2022/09/19 11:58:18;;;;;;;4.97;1.60;;;;;;;13.46;66.22;96006.00;4978237;28;20180;-86
2022/09/19 12:01:15;;;;;;;6.50;1.50;;;;;;;13.43;66.71;96001.06;4973419;28;20208;-87
2022/09/19 12:03:56;;;;;;;7.13;1.57;;;;;;;13.53;67.58;95996.59;4985879;28;20739;-85
2022/09/19 12:36:12;;;;;;;3.93;1.50;;;;;;;13.80;64.77;95972.91;4953011;29;20224;-84
2022/09/19 12:38:52;;;;;;;11.13;2.90;;;;;;;13.91;63.98;95965.75;4902768;29;20323;-84
2022/09/19 12:41:57;;;;;;;6.07;1.93;;;;;;;13.99;63.37;95965.78;4893889;29;20223;-84